createdAt,value
2023-03-17T00:00:39.154Z,2.90
2023-03-17T00:03:08.795Z,3.60
2023-03-17T00:05:37.568Z,2.90
2023-03-17T00:08:15.019Z,2.80
2023-03-17T00:10:43.917Z,2.80
2023-03-17T00:13:12.521Z,2.70
2023-03-17T00:15:40.967Z,2.80
2023-03-17T00:18:15.473Z,2.70
2023-03-17T00:20:44.089Z,2.10
2023-03-17T00:23:16.702Z,2.60
2023-03-17T00:25:46.902Z,2.60
2023-03-17T00:28:19.418Z,2.70
2023-03-17T00:30:48.890Z,2.60
2023-03-17T00:33:26.944Z,2.70
2023-03-17T00:35:55.783Z,2.70
2023-03-17T00:38:24.703Z,2.60
2023-03-17T00:40:52.840Z,4.30
2023-03-17T00:43:20.960Z,2.40
2023-03-17T00:45:49.440Z,3.60
2023-03-17T00:48:20.915Z,1.90
2023-03-17T00:50:50.524Z,2.40
2023-03-17T00:53:20.688Z,2.50
2023-03-17T00:55:50.006Z,2.40
2023-03-17T00:58:24.953Z,2.40
2023-03-17T01:00:53.542Z,2.40
2023-03-17T01:03:23.888Z,2.40
2023-03-17T01:05:54.093Z,2.40
2023-03-17T01:08:23.588Z,2.50
2023-03-17T01:10:51.777Z,3.10
2023-03-17T01:13:19.779Z,4.20
2023-03-17T01:15:49.607Z,2.50
2023-03-17T01:18:20.712Z,2.40
2023-03-17T01:20:51.003Z,2.30
2023-03-17T01:23:19.288Z,1.70
2023-03-17T01:25:47.274Z,2.70
2023-03-17T01:28:18.010Z,4.60
2023-03-17T01:30:47.094Z,2.20
2023-03-17T01:33:15.895Z,2.40
2023-03-17T01:35:45.803Z,2.10
2023-03-17T01:38:16.037Z,2.10
2023-03-17T01:40:46.911Z,2.10
2023-03-17T01:43:36.882Z,2.10
2023-03-17T01:46:29.520Z,2.20
2023-03-17T01:49:19.475Z,2.20
2023-03-17T01:51:55.307Z,2.40
2023-03-17T01:54:31.098Z,2.20
2023-03-17T01:57:06.017Z,2.20
2023-03-17T01:59:38.484Z,2.20
2023-03-17T02:02:09.343Z,2.10
2023-03-17T02:04:40.388Z,2.10
2023-03-17T02:07:10.885Z,2.10
2023-03-17T02:09:40.774Z,2.10
2023-03-17T02:12:10.882Z,2.00
2023-03-17T02:14:39.140Z,2.00
2023-03-17T02:17:07.448Z,2.00
2023-03-17T02:19:35.717Z,3.10
2023-03-17T02:22:05.389Z,3.00
2023-03-17T02:24:37.281Z,2.00
2023-03-17T02:27:09.891Z,2.00
2023-03-17T02:29:38.260Z,1.90
2023-03-17T02:32:07.403Z,3.20
2023-03-17T02:34:36.007Z,1.90
2023-03-17T02:37:06.567Z,1.90
2023-03-17T02:39:35.089Z,1.80
2023-03-17T02:42:03.643Z,1.80
2023-03-17T02:44:31.734Z,1.60
2023-03-17T02:47:01.001Z,3.90
2023-03-17T02:49:31.352Z,1.80
2023-03-17T02:51:59.763Z,1.80
2023-03-17T02:54:29.683Z,4.70
2023-03-17T02:56:58.721Z,1.80
2023-03-17T02:59:27.462Z,1.80
2023-03-17T03:01:57.481Z,1.80
2023-03-17T03:04:26.174Z,1.80
2023-03-17T03:06:54.919Z,1.60
2023-03-17T03:09:24.723Z,1.90
2023-03-17T03:11:54.654Z,1.80
2023-03-17T03:14:23.066Z,1.90
2023-03-17T03:16:52.490Z,5.00
2023-03-17T03:19:20.657Z,1.60
2023-03-17T03:21:48.787Z,1.70
2023-03-17T03:24:17.113Z,3.00
2023-03-17T03:26:46.112Z,5.40
2023-03-17T03:29:16.929Z,1.70
2023-03-17T03:31:45.699Z,1.80
2023-03-17T03:34:14.133Z,1.80
2023-03-17T03:36:43.138Z,1.80
2023-03-17T03:39:14.605Z,1.80
2023-03-17T03:41:43.365Z,-0.10
2023-03-17T03:44:14.338Z,1.70
2023-03-17T03:46:44.214Z,1.80
2023-03-17T03:49:12.852Z,1.90
2023-03-17T03:51:41.667Z,1.90
2023-03-17T03:54:10.037Z,1.80
2023-03-17T03:56:40.338Z,3.90
2023-03-17T03:59:09.759Z,1.70
2023-03-17T04:01:39.424Z,1.80
2023-03-17T04:04:09.013Z,1.50
2023-03-17T04:06:37.269Z,1.70
2023-03-17T04:09:06.565Z,1.70
2023-03-17T04:11:34.894Z,1.70
2023-03-17T04:14:03.366Z,3.00
2023-03-17T04:16:32.143Z,1.80
2023-03-17T04:19:00.673Z,4.00
2023-03-17T04:21:30.276Z,1.80
2023-03-17T04:23:58.568Z,-0.30
2023-03-17T04:26:27.260Z,1.80
2023-03-17T04:28:55.842Z,2.00
2023-03-17T04:31:24.397Z,2.00
2023-03-17T04:33:53.715Z,2.00
2023-03-17T04:36:25.190Z,2.00
2023-03-17T04:38:54.881Z,2.00
2023-03-17T04:41:23.158Z,2.00
2023-03-17T04:43:51.464Z,2.00
2023-03-17T04:46:20.169Z,2.00
2023-03-17T04:48:48.730Z,1.90
2023-03-17T04:51:17.209Z,1.90
2023-03-17T04:53:45.678Z,1.90
2023-03-17T04:56:15.855Z,1.80
2023-03-17T04:58:44.477Z,1.80
2023-03-17T05:01:14.099Z,1.70
2023-03-17T05:03:42.463Z,1.80
2023-03-17T05:06:11.019Z,1.60
2023-03-17T05:08:39.220Z,1.80
2023-03-17T05:11:11.743Z,0.80
2023-03-17T05:13:42.583Z,1.80
2023-03-17T05:16:11.368Z,1.70
2023-03-17T05:18:39.780Z,3.40
2023-03-17T05:21:07.875Z,1.90
2023-03-17T05:23:36.102Z,1.80
2023-03-17T05:26:07.301Z,1.50
2023-03-17T05:28:35.452Z,1.70
2023-03-17T05:31:10.299Z,1.80
2023-03-17T05:33:39.391Z,0.80
2023-03-17T05:36:08.893Z,1.60
2023-03-17T05:38:37.269Z,1.50
2023-03-17T05:41:05.839Z,1.50
2023-03-17T05:43:34.234Z,1.50
2023-03-17T05:46:02.549Z,1.50
2023-03-17T05:48:32.218Z,1.60
2023-03-17T05:51:00.451Z,-0.70
2023-03-17T05:53:31.822Z,1.50
2023-03-17T05:56:11.629Z,1.70
2023-03-17T05:58:40.962Z,1.70
2023-03-17T06:01:09.299Z,1.70
2023-03-17T06:03:39.612Z,1.80
2023-03-17T06:06:09.251Z,3.00
2023-03-17T06:08:38.882Z,1.80
2023-03-17T06:16:37.799Z,2.30
2023-03-17T06:19:08.608Z,2.30
2023-03-17T06:24:18.268Z,2.50
2023-03-17T06:26:46.909Z,2.40
2023-03-17T06:29:15.031Z,2.40
2023-03-17T06:31:50.499Z,2.50
2023-03-17T06:34:20.914Z,2.50
2023-03-17T06:36:49.988Z,3.70
2023-03-17T06:39:18.279Z,2.50
2023-03-17T06:41:46.448Z,2.50
2023-03-17T06:44:29.110Z,3.10
2023-03-17T06:46:57.417Z,2.60
2023-03-17T06:49:27.710Z,3.40
2023-03-17T06:52:08.658Z,2.50
2023-03-17T06:54:37.658Z,2.60
2023-03-17T06:57:06.661Z,2.70
2023-03-17T06:59:36.031Z,2.70
2023-03-17T07:02:05.442Z,2.80
2023-03-17T07:04:37.559Z,2.80
2023-03-17T07:07:06.336Z,2.80
2023-03-17T07:09:35.530Z,2.90
2023-03-17T07:12:16.493Z,3.10
2023-03-17T07:14:45.448Z,4.00
2023-03-17T07:17:14.575Z,5.80
2023-03-17T07:19:44.579Z,3.20
2023-03-17T07:22:13.941Z,3.20
2023-03-17T07:24:43.375Z,3.30
2023-03-17T07:27:11.906Z,4.50
2023-03-17T07:29:40.167Z,3.40
2023-03-17T07:32:09.863Z,5.20
2023-03-17T07:34:38.171Z,3.60
2023-03-17T07:37:07.912Z,3.60
2023-03-17T07:39:36.251Z,3.70
2023-03-17T07:42:05.063Z,5.30
2023-03-17T07:44:33.321Z,3.90
2023-03-17T07:47:01.446Z,5.20
2023-03-17T07:49:40.721Z,4.10
2023-03-17T07:52:12.722Z,4.20
2023-03-17T07:54:43.138Z,4.30
2023-03-17T07:57:12.508Z,4.40
2023-03-17T07:59:41.713Z,4.50
2023-03-17T08:02:15.876Z,4.50
2023-03-17T08:04:44.330Z,6.00
2023-03-17T08:07:14.610Z,4.90
2023-03-17T08:09:43.123Z,4.70
2023-03-17T08:12:12.024Z,3.90
2023-03-17T08:14:41.508Z,6.70
2023-03-17T08:17:10.656Z,5.10
2023-03-17T08:19:39.239Z,5.20
2023-03-17T08:22:08.162Z,5.30
2023-03-17T08:24:39.740Z,5.40
2023-03-17T08:27:08.018Z,5.50
2023-03-17T08:29:36.545Z,5.60
2023-03-17T08:32:04.920Z,5.70
2023-03-17T08:34:33.774Z,5.80
2023-03-17T08:37:02.839Z,7.00
2023-03-17T08:39:32.041Z,5.90
2023-03-17T08:42:02.210Z,6.00
2023-03-17T08:44:30.881Z,6.00
2023-03-17T08:46:59.121Z,7.20
2023-03-17T08:49:28.609Z,6.20
2023-03-17T08:51:56.826Z,6.40
2023-03-17T08:54:25.993Z,6.60
2023-03-17T08:56:54.018Z,7.30
2023-03-17T09:00:06.876Z,6.80
2023-03-17T09:02:55.635Z,7.00
